createdAt,value
2018-04-06T00:00:14.287Z,999.14
2018-04-06T00:01:14.378Z,999.18
2018-04-06T00:02:14.462Z,999.20
2018-04-06T00:03:14.552Z,999.23
2018-04-06T00:04:14.640Z,999.23
2018-04-06T00:05:14.731Z,999.22
2018-04-06T00:06:14.838Z,999.20
2018-04-06T00:07:14.924Z,999.25
2018-04-06T00:08:15.016Z,999.22
2018-04-06T00:09:15.100Z,999.22
2018-04-06T00:10:15.190Z,999.25
2018-04-06T00:11:15.278Z,999.23
2018-04-06T00:12:15.373Z,999.19
2018-04-06T00:13:15.462Z,999.20
2018-04-06T00:14:15.547Z,999.21
2018-04-06T00:15:15.638Z,999.20
2018-04-06T00:16:15.726Z,999.18
2018-04-06T00:17:15.814Z,999.22
2018-04-06T00:18:15.904Z,999.25
2018-04-06T00:19:16.000Z,999.27
2018-04-06T00:20:16.079Z,999.29
2018-04-06T00:21:16.167Z,999.32
2018-04-06T00:22:16.270Z,999.40
2018-04-06T00:23:16.362Z,999.37
2018-04-06T00:24:16.448Z,999.38
2018-04-06T00:25:16.534Z,999.39
2018-04-06T00:26:16.621Z,999.36
2018-04-06T00:27:16.716Z,999.38
2018-04-06T00:28:16.815Z,999.33
2018-04-06T00:29:16.897Z,999.34
2018-04-06T00:30:16.992Z,999.30
2018-04-06T00:31:17.078Z,999.30
2018-04-06T00:32:17.166Z,999.35
2018-04-06T00:33:17.256Z,999.32
2018-04-06T00:34:17.342Z,999.33
2018-04-06T00:35:17.427Z,999.32
2018-04-06T00:36:17.527Z,999.37
2018-04-06T00:37:17.605Z,999.38
2018-04-06T00:38:17.695Z,999.41
2018-04-06T00:39:17.783Z,999.38
2018-04-06T00:40:17.875Z,999.43
2018-04-06T00:41:17.965Z,999.41
2018-04-06T00:42:18.055Z,999.43
2018-04-06T00:43:18.144Z,999.41
2018-04-06T00:44:18.230Z,999.41
2018-04-06T00:45:18.316Z,999.44
2018-04-06T00:46:18.403Z,999.36
2018-04-06T00:47:18.493Z,999.40
2018-04-06T00:48:18.578Z,999.39
2018-04-06T00:49:18.667Z,999.39
2018-04-06T00:50:18.750Z,999.33
2018-04-06T00:51:18.841Z,999.34
2018-04-06T00:52:18.936Z,999.35
2018-04-06T00:53:19.021Z,999.31
2018-04-06T00:54:19.128Z,999.28
2018-04-06T00:55:19.197Z,999.32
2018-04-06T00:56:19.280Z,999.27
2018-04-06T00:57:19.368Z,999.29
2018-04-06T00:58:19.455Z,999.28
2018-04-06T00:59:19.543Z,999.26
2018-04-06T01:00:19.628Z,999.31
2018-04-06T01:01:19.721Z,999.36
2018-04-06T01:02:19.828Z,999.36
2018-04-06T01:03:19.921Z,999.36
2018-04-06T01:04:20.006Z,999.39
2018-04-06T01:05:20.093Z,999.39
2018-04-06T01:06:20.181Z,999.36
2018-04-06T01:07:20.269Z,999.34
2018-04-06T01:08:20.357Z,999.37
2018-04-06T01:09:20.446Z,999.36
2018-04-06T01:10:20.530Z,999.35
2018-04-06T01:11:20.638Z,999.36
2018-04-06T01:12:21.634Z,999.39
2018-04-06T01:13:20.805Z,999.38
2018-04-06T01:14:20.878Z,999.37
2018-04-06T01:15:20.960Z,999.37
2018-04-06T01:16:21.097Z,999.37
2018-04-06T01:17:21.184Z,999.39
2018-04-06T01:18:21.312Z,999.42
2018-04-06T01:19:21.383Z,999.40
2018-04-06T01:20:21.511Z,999.37
2018-04-06T01:21:21.589Z,999.36
2018-04-06T01:22:21.714Z,999.33
2018-04-06T01:23:21.805Z,999.31
2018-04-06T01:24:21.904Z,999.30
2018-04-06T01:25:21.997Z,999.30
2018-04-06T01:26:22.078Z,999.27
2018-04-06T01:27:22.167Z,999.31
2018-04-06T01:28:22.258Z,999.31
2018-04-06T01:29:22.359Z,999.37
2018-04-06T01:30:22.549Z,999.39
2018-04-06T01:31:22.507Z,999.42
2018-04-06T01:32:22.598Z,999.43
2018-04-06T01:33:22.689Z,999.49
2018-04-06T01:34:22.762Z,999.47
2018-04-06T01:35:22.840Z,999.45
2018-04-06T01:36:22.955Z,999.48
2018-04-06T01:37:23.049Z,999.41
2018-04-06T01:38:23.131Z,999.46
2018-04-06T01:39:23.219Z,999.40
2018-04-06T01:40:23.315Z,999.43
2018-04-06T01:41:23.406Z,999.45
2018-04-06T01:42:23.500Z,999.50
2018-04-06T01:43:23.585Z,999.48
2018-04-06T01:44:23.654Z,999.45
2018-04-06T01:45:23.743Z,999.42
2018-04-06T01:46:23.860Z,999.39
2018-04-06T01:47:23.955Z,999.31
2018-04-06T01:48:24.039Z,999.33
2018-04-06T01:49:24.121Z,999.33
2018-04-06T01:50:24.205Z,999.36
2018-04-06T01:51:24.287Z,999.40
2018-04-06T01:52:24.368Z,999.41
2018-04-06T01:53:24.507Z,999.47
2018-04-06T01:54:24.642Z,999.54
2018-04-06T01:55:24.732Z,999.54
2018-04-06T01:56:24.828Z,999.55
2018-04-06T01:57:24.904Z,999.53
2018-04-06T01:58:25.020Z,999.50
2018-04-06T01:59:25.160Z,999.45
2018-04-06T02:00:25.249Z,999.48
2018-04-06T02:01:25.346Z,999.50
2018-04-06T02:02:25.435Z,999.51
2018-04-06T02:03:25.516Z,999.56
2018-04-06T02:04:25.611Z,999.56
2018-04-06T02:05:25.693Z,999.58
2018-04-06T02:06:25.789Z,999.58
2018-04-06T02:07:25.864Z,999.56
2018-04-06T02:08:25.938Z,999.53
2018-04-06T02:09:26.025Z,999.56
2018-04-06T02:10:26.123Z,999.54
2018-04-06T02:11:26.222Z,999.49
2018-04-06T02:12:26.310Z,999.53
2018-04-06T02:13:26.399Z,999.48
2018-04-06T02:14:26.484Z,999.48
2018-04-06T02:15:26.580Z,999.50
2018-04-06T02:16:26.671Z,999.49
2018-04-06T02:17:26.751Z,999.50
2018-04-06T02:18:26.860Z,999.52
2018-04-06T02:19:26.980Z,999.52
2018-04-06T02:20:27.071Z,999.53
2018-04-06T02:21:27.145Z,999.53
2018-04-06T02:22:27.226Z,999.49
2018-04-06T02:23:27.338Z,999.52
2018-04-06T02:24:27.463Z,999.55
2018-04-06T02:25:27.532Z,999.55
2018-04-06T02:26:27.659Z,999.58
2018-04-06T02:27:27.749Z,999.55
2018-04-06T02:28:27.840Z,999.53
2018-04-06T02:29:27.929Z,999.57
2018-04-06T02:30:28.032Z,999.60
2018-04-06T02:31:28.119Z,999.60
2018-04-06T02:32:28.203Z,999.62
2018-04-06T02:33:28.297Z,999.61
2018-04-06T02:34:28.375Z,999.59
2018-04-06T02:35:28.468Z,999.62
2018-04-06T02:36:28.559Z,999.66
2018-04-06T02:37:28.659Z,999.67
2018-04-06T02:38:28.746Z,999.71
2018-04-06T02:39:28.844Z,999.69
2018-04-06T02:40:28.951Z,999.75
2018-04-06T02:41:29.039Z,999.75
2018-04-06T02:42:29.123Z,999.76
2018-04-06T02:43:29.221Z,999.72
2018-04-06T02:44:29.309Z,999.71
2018-04-06T02:45:29.388Z,999.79
2018-04-06T02:46:29.473Z,999.72
2018-04-06T02:47:29.547Z,999.73
2018-04-06T02:48:29.631Z,999.78
2018-04-06T02:49:29.729Z,999.77
2018-04-06T02:50:29.808Z,999.78
2018-04-06T02:51:29.915Z,999.80
2018-04-06T02:52:29.995Z,999.83
2018-04-06T02:53:30.105Z,999.84
2018-04-06T02:54:30.191Z,999.85
2018-04-06T02:55:30.269Z,999.78
2018-04-06T02:56:30.357Z,999.82
2018-04-06T02:57:30.433Z,999.85
2018-04-06T02:58:30.524Z,999.81
2018-04-06T02:59:30.609Z,999.86
2018-04-06T03:00:30.688Z,999.85
2018-04-06T03:01:30.787Z,999.87
2018-04-06T03:02:30.865Z,999.88
2018-04-06T03:03:30.947Z,999.85
2018-04-06T03:04:31.026Z,999.84
2018-04-06T03:05:31.106Z,999.81
2018-04-06T03:06:31.194Z,999.82
2018-04-06T03:07:31.277Z,999.82
2018-04-06T03:08:31.365Z,999.80
2018-04-06T03:09:31.447Z,999.85
2018-04-06T03:10:31.531Z,999.81
2018-04-06T03:11:31.612Z,999.85
2018-04-06T03:12:31.700Z,999.83
2018-04-06T03:13:31.795Z,999.85
2018-04-06T03:14:31.882Z,999.84
2018-04-06T03:15:31.962Z,999.87
2018-04-06T03:16:32.045Z,999.84
2018-04-06T03:17:32.130Z,999.88
2018-04-06T03:18:32.218Z,999.85
2018-04-06T03:19:32.308Z,999.88
2018-04-06T03:20:32.395Z,999.86
2018-04-06T03:21:32.486Z,999.88
2018-04-06T03:22:32.578Z,999.89
2018-04-06T03:23:32.667Z,999.87
2018-04-06T03:24:32.755Z,999.84
2018-04-06T03:25:32.846Z,999.86
2018-04-06T03:26:32.935Z,999.84
2018-04-06T03:27:33.027Z,999.86
2018-04-06T03:28:33.111Z,999.82
2018-04-06T03:29:33.197Z,999.83
2018-04-06T03:30:33.296Z,999.85
2018-04-06T03:31:33.373Z,999.84
2018-04-06T03:32:33.464Z,999.86
2018-04-06T03:33:33.552Z,999.85
2018-04-06T03:34:33.665Z,999.89
2018-04-06T03:35:33.753Z,999.89
2018-04-06T03:36:33.840Z,999.93
2018-04-06T03:37:33.932Z,999.94
2018-04-06T03:38:34.019Z,999.95
2018-04-06T03:39:34.110Z,999.97
2018-04-06T03:40:34.203Z,999.94
2018-04-06T03:41:34.294Z,999.97
2018-04-06T03:42:34.377Z,999.98
2018-04-06T03:43:34.465Z,999.95
2018-04-06T03:44:34.552Z,999.92
2018-04-06T03:45:34.643Z,999.90
2018-04-06T03:46:34.728Z,999.86
2018-04-06T03:47:34.811Z,999.90
2018-04-06T03:48:34.900Z,999.95
2018-04-06T03:49:34.990Z,999.92
2018-04-06T03:50:35.069Z,999.95
2018-04-06T03:51:35.152Z,999.93
2018-04-06T03:52:35.231Z,999.92
2018-04-06T03:53:35.320Z,999.91
2018-04-06T03:54:35.413Z,999.90
2018-04-06T03:55:35.501Z,999.90
2018-04-06T03:56:35.584Z,999.89
2018-04-06T03:57:35.680Z,999.88
2018-04-06T03:58:35.772Z,999.86
2018-04-06T03:59:35.862Z,999.83
2018-04-06T04:00:35.949Z,999.84
2018-04-06T04:01:36.037Z,999.83
2018-04-06T04:02:36.120Z,999.82
2018-04-06T04:03:36.210Z,999.80
2018-04-06T04:04:36.294Z,999.82
2018-04-06T04:05:36.386Z,999.81
2018-04-06T04:06:36.473Z,999.82
2018-04-06T04:07:36.560Z,999.84
2018-04-06T04:08:36.646Z,999.82
2018-04-06T04:09:36.744Z,999.88
2018-04-06T04:10:36.826Z,999.86
2018-04-06T04:11:36.916Z,999.83
2018-04-06T04:12:37.002Z,999.88
2018-04-06T04:13:37.093Z,999.84
2018-04-06T04:14:37.177Z,999.86
2018-04-06T04:15:37.272Z,999.90
2018-04-06T04:16:37.360Z,999.91
2018-04-06T04:17:37.448Z,999.93
2018-04-06T04:18:37.543Z,999.93
2018-04-06T04:19:37.628Z,999.93
2018-04-06T04:20:37.716Z,999.90
2018-04-06T04:21:37.804Z,999.91
2018-04-06T04:22:37.895Z,999.91
2018-04-06T04:23:37.984Z,999.93
2018-04-06T04:24:38.071Z,999.94
2018-04-06T04:25:38.161Z,999.90
2018-04-06T04:26:38.247Z,999.90
2018-04-06T04:27:38.335Z,999.92
2018-04-06T04:28:38.423Z,999.94
2018-04-06T04:29:38.514Z,999.94
2018-04-06T04:30:38.603Z,999.98
2018-04-06T04:31:38.690Z,999.96
2018-04-06T04:32:38.777Z,999.99
2018-04-06T04:33:38.862Z,999.98
2018-04-06T04:34:38.951Z,999.98
2018-04-06T04:35:39.036Z,999.95
2018-04-06T04:36:39.150Z,999.92
2018-04-06T04:37:39.240Z,999.95
2018-04-06T04:38:39.330Z,999.88
2018-04-06T04:39:39.418Z,999.87
2018-04-06T04:40:39.504Z,999.86
2018-04-06T04:41:39.591Z,999.87
2018-04-06T04:42:39.678Z,999.87
2018-04-06T04:43:39.767Z,999.93
2018-04-06T04:44:39.857Z,999.87
2018-04-06T04:45:39.944Z,999.90
2018-04-06T04:46:40.036Z,999.87
2018-04-06T04:47:40.120Z,999.89
2018-04-06T04:48:40.209Z,999.86
2018-04-06T04:49:40.295Z,999.89
2018-04-06T04:50:40.386Z,999.90
2018-04-06T04:51:40.475Z,999.92
2018-04-06T04:52:40.565Z,999.94
2018-04-06T04:53:40.649Z,999.92
2018-04-06T04:54:40.728Z,999.93
2018-04-06T04:55:40.811Z,999.91
2018-04-06T04:56:40.902Z,999.92
2018-04-06T04:57:41.000Z,999.91
2018-04-06T04:58:41.088Z,999.94
2018-04-06T04:59:41.171Z,999.95
2018-04-06T05:00:41.263Z,999.94
2018-04-06T05:01:41.351Z,999.94
2018-04-06T05:02:41.439Z,999.95
2018-04-06T05:03:41.531Z,999.96
2018-04-06T05:04:41.617Z,999.97
2018-04-06T05:05:41.710Z,999.97
2018-04-06T05:06:41.795Z,999.99
2018-04-06T05:07:41.900Z,999.99
2018-04-06T05:08:41.985Z,1000.02
2018-04-06T05:09:42.076Z,999.99
2018-04-06T05:10:42.166Z,1000.00
2018-04-06T05:11:42.253Z,999.99
2018-04-06T05:12:42.340Z,999.99
2018-04-06T05:13:42.440Z,999.99
2018-04-06T05:14:42.516Z,1000.01
2018-04-06T05:15:42.608Z,999.99
2018-04-06T05:16:42.700Z,999.99
2018-04-06T05:17:42.791Z,999.99
2018-04-06T05:18:42.881Z,1000.01
2018-04-06T05:19:43.071Z,1000.03
2018-04-06T05:20:43.041Z,1000.07
2018-04-06T05:21:43.111Z,1000.04
2018-04-06T05:22:43.205Z,1000.08
2018-04-06T05:23:43.296Z,1000.09
2018-04-06T05:24:43.373Z,1000.11
2018-04-06T05:25:44.219Z,1000.08
2018-04-06T05:26:43.561Z,1000.11
2018-04-06T05:27:43.644Z,1000.11
2018-04-06T05:28:43.720Z,1000.06
2018-04-06T05:29:43.803Z,1000.07
2018-04-06T05:30:43.895Z,1000.10
2018-04-06T05:31:43.985Z,1000.13
2018-04-06T05:32:44.079Z,1000.13
2018-04-06T05:33:44.209Z,1000.17
2018-04-06T05:34:44.253Z,1000.17
2018-04-06T05:35:44.328Z,1000.18
2018-04-06T05:36:44.436Z,1000.23
2018-04-06T05:37:44.540Z,1000.24
2018-04-06T05:38:44.732Z,1000.26
2018-04-06T05:39:44.717Z,1000.24
2018-04-06T05:40:44.801Z,1000.30
2018-04-06T05:41:44.888Z,1000.25
2018-04-06T05:42:44.977Z,1000.26
2018-04-06T05:43:45.044Z,1000.29
2018-04-06T05:44:45.160Z,1000.28
2018-04-06T05:45:45.251Z,1000.35
2018-04-06T05:46:45.370Z,1000.34
2018-04-06T05:47:45.456Z,1000.36
2018-04-06T05:48:45.562Z,1000.38
2018-04-06T05:49:45.673Z,1000.35
2018-04-06T05:50:45.787Z,1000.33
2018-04-06T05:51:45.867Z,1000.30
2018-04-06T05:52:45.999Z,1000.26
2018-04-06T05:53:45.989Z,1000.24
2018-04-06T05:54:46.071Z,1000.24
2018-04-06T05:55:46.151Z,1000.26
2018-04-06T05:56:46.228Z,1000.24
2018-04-06T05:57:46.475Z,1000.25
2018-04-06T05:58:46.444Z,1000.30
2018-04-06T05:59:46.532Z,1000.30
2018-04-06T06:00:46.615Z,1000.35
2018-04-06T06:01:46.708Z,1000.35
2018-04-06T06:02:46.793Z,1000.33
2018-04-06T06:03:46.887Z,1000.35
2018-04-06T06:04:46.972Z,1000.35
2018-04-06T06:05:47.062Z,1000.37
2018-04-06T06:06:47.148Z,1000.42
2018-04-06T06:07:47.237Z,1000.37
2018-04-06T06:08:47.343Z,1000.42
2018-04-06T06:09:47.434Z,1000.44
2018-04-06T06:10:47.498Z,1000.46
2018-04-06T06:11:47.587Z,1000.42
2018-04-06T06:12:47.676Z,1000.33
2018-04-06T06:13:47.767Z,1000.40
2018-04-06T06:14:47.855Z,1000.37
2018-04-06T06:15:47.946Z,1000.37
2018-04-06T06:16:48.031Z,1000.42
2018-04-06T06:17:48.136Z,1000.39
2018-04-06T06:18:48.203Z,1000.50
2018-04-06T06:19:48.289Z,1000.63
2018-04-06T06:20:48.382Z,1000.69
2018-04-06T06:21:48.469Z,1000.67
2018-04-06T06:22:48.561Z,1000.65
2018-04-06T06:23:48.646Z,1000.68
2018-04-06T06:24:48.760Z,1000.71
2018-04-06T06:25:48.845Z,1000.72
2018-04-06T06:26:48.933Z,1000.84
2018-04-06T06:27:49.108Z,1000.88
2018-04-06T06:28:49.160Z,1000.89
2018-04-06T06:29:49.238Z,1000.93
2018-04-06T06:30:49.345Z,1000.92
2018-04-06T06:31:49.500Z,1000.86
2018-04-06T06:32:49.590Z,1000.84
2018-04-06T06:33:49.678Z,1000.85
2018-04-06T06:34:49.772Z,1000.84
2018-04-06T06:35:49.866Z,1000.85
2018-04-06T06:36:49.975Z,1000.89
2018-04-06T06:37:50.044Z,1000.83
2018-04-06T06:38:50.133Z,1000.80
2018-04-06T06:39:50.224Z,1000.79
2018-04-06T06:40:50.312Z,1000.76
2018-04-06T06:41:50.406Z,1000.76
2018-04-06T06:42:50.512Z,1000.79
2018-04-06T06:43:50.583Z,1000.78
2018-04-06T06:44:50.676Z,1000.78
2018-04-06T06:45:50.784Z,1000.76
2018-04-06T06:46:50.899Z,1000.69
2018-04-06T06:47:51.046Z,1000.71
2018-04-06T06:48:51.152Z,1000.73
2018-04-06T06:49:51.249Z,1000.73
2018-04-06T06:50:51.332Z,1000.74
2018-04-06T06:51:51.453Z,1000.69
2018-04-06T06:52:51.541Z,1000.70
2018-04-06T06:53:51.710Z,1000.66
2018-04-06T06:54:51.705Z,1000.68
2018-04-06T06:55:51.831Z,1000.68
2018-04-06T06:56:51.921Z,1000.71
2018-04-06T06:57:52.044Z,1000.72
2018-04-06T06:58:52.182Z,1000.73
2018-04-06T06:59:52.218Z,1000.73
2018-04-06T07:00:52.322Z,1000.72
2018-04-06T07:01:52.612Z,1000.72
2018-04-06T07:02:52.652Z,1000.74
2018-04-06T07:03:52.897Z,1000.70
2018-04-06T07:04:52.679Z,1000.73
2018-04-06T07:05:52.797Z,1000.74
2018-04-06T07:06:52.918Z,1000.78
2018-04-06T07:07:53.036Z,1000.76
2018-04-06T07:08:53.054Z,1000.74
2018-04-06T07:09:53.181Z,1000.76
2018-04-06T07:10:53.198Z,1000.77
2018-04-06T07:11:53.390Z,1000.77
2018-04-06T07:12:53.369Z,1000.76
2018-04-06T07:13:53.465Z,1000.74
2018-04-06T07:14:53.553Z,1000.75
2018-04-06T07:15:53.630Z,1000.74
2018-04-06T07:16:53.746Z,1000.79
2018-04-06T07:17:53.834Z,1000.74
2018-04-06T07:18:53.967Z,1000.74
2018-04-06T07:19:54.226Z,1000.69
2018-04-06T07:20:54.146Z,1000.69
2018-04-06T07:21:54.285Z,1000.69
2018-04-06T07:22:54.324Z,1000.65
2018-04-06T07:23:54.458Z,1000.66
2018-04-06T07:24:54.437Z,1000.66
2018-04-06T07:25:54.537Z,1000.65
2018-04-06T07:26:54.691Z,1000.65
2018-04-06T07:27:54.821Z,1000.61
2018-04-06T07:28:54.924Z,1000.62
2018-04-06T07:29:55.017Z,1000.63
2018-04-06T07:30:55.140Z,1000.62
2018-04-06T07:31:55.242Z,1000.63
2018-04-06T07:32:55.391Z,1000.64
2018-04-06T07:33:55.496Z,1000.65
2018-04-06T07:34:55.625Z,1000.62
2018-04-06T07:35:55.720Z,1000.60
2018-04-06T07:36:55.833Z,1000.64
2018-04-06T07:37:55.919Z,1000.68
2018-04-06T07:38:56.013Z,1000.64
2018-04-06T07:39:56.097Z,1000.69
2018-04-06T07:40:56.215Z,1000.63
2018-04-06T07:41:56.320Z,1000.63
2018-04-06T07:42:56.431Z,1000.58
2018-04-06T07:43:56.549Z,1000.56
2018-04-06T07:44:56.682Z,1000.56
2018-04-06T07:45:56.771Z,1000.55
2018-04-06T07:46:56.887Z,1000.55
2018-04-06T07:47:56.986Z,1000.50
2018-04-06T07:48:57.088Z,1000.51
2018-04-06T07:49:57.180Z,1000.48
2018-04-06T07:50:57.289Z,1000.44
2018-04-06T07:51:57.451Z,1000.43
2018-04-06T07:52:57.430Z,1000.43
2018-04-06T07:53:57.593Z,1000.44
2018-04-06T07:54:57.589Z,1000.46
2018-04-06T07:55:57.688Z,1000.44
2018-04-06T07:56:57.792Z,1000.44
2018-04-06T07:57:57.900Z,1000.45
2018-04-06T07:58:57.999Z,1000.45
2018-04-06T07:59:58.179Z,1000.42
2018-04-06T08:00:58.134Z,1000.42
2018-04-06T08:01:58.263Z,1000.48
2018-04-06T08:02:58.369Z,1000.51
2018-04-06T08:03:58.467Z,1000.51
2018-04-06T08:04:58.559Z,1000.50
2018-04-06T08:05:58.665Z,1000.51
2018-04-06T08:06:58.758Z,1000.44
2018-04-06T08:07:58.863Z,1000.45
2018-04-06T08:08:59.045Z,1000.39
2018-04-06T08:09:59.039Z,1000.43
2018-04-06T08:10:59.168Z,1000.51
2018-04-06T08:11:59.210Z,1000.48
2018-04-06T08:12:59.251Z,1000.43
2018-04-06T08:13:59.344Z,1000.48
2018-04-06T08:14:59.461Z,1000.42
2018-04-06T08:15:59.545Z,1000.41
2018-04-06T08:16:59.687Z,1000.43
2018-04-06T08:17:59.776Z,1000.41
2018-04-06T08:18:59.912Z,1000.40
2018-04-06T08:20:00.035Z,1000.39
2018-04-06T08:21:00.149Z,1000.36
2018-04-06T08:22:00.232Z,1000.39
2018-04-06T08:23:00.322Z,1000.32
2018-04-06T08:24:00.418Z,1000.34
2018-04-06T08:25:00.514Z,1000.29
2018-04-06T08:26:00.619Z,1000.27
2018-04-06T08:27:00.746Z,1000.27
2018-04-06T08:28:00.843Z,1000.26
2018-04-06T08:29:00.953Z,1000.22
2018-04-06T08:30:01.040Z,1000.26
2018-04-06T08:31:01.130Z,1000.19
2018-04-06T08:32:01.313Z,1000.19
2018-04-06T08:33:01.308Z,1000.14
2018-04-06T08:34:01.415Z,1000.14
2018-04-06T08:35:01.499Z,1000.16
2018-04-06T08:36:01.599Z,1000.12
2018-04-06T08:37:01.674Z,1000.10
2018-04-06T08:38:01.794Z,1000.12
2018-04-06T08:39:01.905Z,1000.18
2018-04-06T08:40:01.983Z,1000.16
2018-04-06T08:41:02.071Z,1000.12
2018-04-06T08:42:02.166Z,1000.13
2018-04-06T08:43:02.301Z,1000.14
2018-04-06T08:44:02.381Z,1000.10
2018-04-06T08:45:02.466Z,1000.08
2018-04-06T08:46:02.568Z,1000.09
2018-04-06T08:47:02.675Z,1000.09
2018-04-06T08:48:02.783Z,1000.07
2018-04-06T08:49:02.859Z,1000.02
2018-04-06T08:50:02.965Z,1000.05
2018-04-06T08:51:03.077Z,1000.01
2018-04-06T08:52:03.162Z,1000.03
2018-04-06T08:53:03.283Z,999.98
2018-04-06T08:54:03.384Z,999.98
2018-04-06T08:55:03.491Z,999.95
2018-04-06T08:56:03.584Z,999.91
2018-04-06T08:57:03.688Z,999.88
2018-04-06T08:58:03.821Z,999.80
2018-04-06T08:59:03.897Z,999.78
2018-04-06T09:00:03.982Z,999.77
2018-04-06T09:01:04.087Z,999.79
2018-04-06T09:02:04.165Z,999.69
2018-04-06T09:03:04.251Z,999.69
2018-04-06T09:04:04.346Z,999.70
2018-04-06T09:05:04.463Z,999.66
2018-04-06T09:06:04.559Z,999.68
2018-04-06T09:07:04.650Z,999.68
2018-04-06T09:08:04.742Z,999.70
2018-04-06T09:09:04.833Z,999.68
2018-04-06T09:10:04.927Z,999.62
2018-04-06T09:11:05.022Z,999.65
2018-04-06T09:12:05.114Z,999.64
2018-04-06T09:13:05.206Z,999.58
2018-04-06T09:14:05.300Z,999.58
2018-04-06T09:15:05.396Z,999.61
2018-04-06T09:16:05.513Z,999.60
2018-04-06T09:17:05.611Z,999.59
2018-04-06T09:18:05.706Z,999.62
2018-04-06T09:19:05.806Z,999.61
2018-04-06T09:20:05.897Z,999.58
2018-04-06T09:21:05.996Z,999.60
2018-04-06T09:22:06.092Z,999.57
2018-04-06T09:23:06.185Z,999.56
2018-04-06T09:24:06.275Z,999.58
2018-04-06T09:25:06.370Z,999.59
2018-04-06T09:26:06.463Z,999.53
2018-04-06T09:27:06.560Z,999.53
2018-04-06T09:28:06.644Z,999.50
2018-04-06T09:29:06.740Z,999.55
2018-04-06T09:30:06.834Z,999.54
2018-04-06T09:31:06.933Z,999.54
2018-04-06T09:32:07.028Z,999.54
2018-04-06T09:33:07.120Z,999.48
2018-04-06T09:34:07.214Z,999.44
2018-04-06T09:35:07.311Z,999.53
2018-04-06T09:36:07.403Z,999.48
2018-04-06T09:37:07.499Z,999.44
2018-04-06T09:38:07.589Z,999.49
2018-04-06T09:39:07.683Z,999.45
2018-04-06T09:40:07.775Z,999.38
2018-04-06T09:41:07.870Z,999.39
2018-04-06T09:42:07.960Z,999.40
2018-04-06T09:43:08.058Z,999.38
2018-04-06T09:44:08.149Z,999.40
2018-04-06T09:45:08.243Z,999.41
2018-04-06T09:46:08.336Z,999.34
2018-04-06T09:47:08.432Z,999.36
2018-04-06T09:48:08.526Z,999.34
2018-04-06T09:49:08.621Z,999.32
2018-04-06T09:50:08.718Z,999.32
2018-04-06T09:51:08.807Z,999.28
2018-04-06T09:52:08.903Z,999.23
2018-04-06T09:53:09.000Z,999.19
2018-04-06T09:54:09.099Z,999.23
2018-04-06T09:55:09.195Z,999.17
2018-04-06T09:56:09.294Z,999.21
2018-04-06T09:57:09.385Z,999.20
2018-04-06T09:58:09.479Z,999.21
2018-04-06T09:59:09.575Z,999.15
2018-04-06T10:00:09.669Z,999.16
2018-04-06T10:01:09.760Z,999.14
2018-04-06T10:02:09.854Z,999.11
2018-04-06T10:03:09.950Z,999.16
2018-04-06T10:04:10.045Z,999.12
2018-04-06T10:05:10.141Z,999.11
2018-04-06T10:06:10.235Z,999.08
2018-04-06T10:07:10.333Z,999.06
2018-04-06T10:08:10.425Z,999.06
2018-04-06T10:09:10.524Z,999.10
2018-04-06T10:10:10.620Z,999.10
2018-04-06T10:11:10.712Z,999.08
2018-04-06T10:12:10.807Z,999.07
2018-04-06T10:13:10.908Z,999.01
2018-04-06T10:14:10.993Z,999.02
2018-04-06T10:15:11.090Z,998.99
2018-04-06T10:16:11.180Z,998.93
2018-04-06T10:17:11.270Z,998.97
2018-04-06T10:18:11.363Z,998.95
2018-04-06T10:19:11.458Z,999.00
2018-04-06T10:20:11.574Z,998.97
2018-04-06T10:21:11.672Z,998.97
2018-04-06T10:22:11.765Z,998.91
2018-04-06T10:23:11.860Z,998.92
2018-04-06T10:24:11.964Z,998.91
2018-04-06T10:25:12.051Z,998.91
2018-04-06T10:26:12.148Z,998.94
2018-04-06T10:27:12.241Z,998.91
2018-04-06T10:28:12.333Z,998.86
2018-04-06T10:29:12.436Z,998.88
2018-04-06T10:30:12.527Z,998.88
2018-04-06T10:31:12.624Z,998.87
2018-04-06T10:32:12.720Z,998.87
2018-04-06T10:33:12.857Z,998.90
2018-04-06T10:34:12.913Z,998.91
2018-04-06T10:35:13.009Z,998.88
2018-04-06T10:36:13.103Z,998.85
2018-04-06T10:37:13.198Z,998.86
2018-04-06T10:38:13.296Z,998.87
2018-04-06T10:39:13.389Z,998.81
2018-04-06T10:40:13.498Z,998.83
2018-04-06T10:41:13.592Z,998.81
2018-04-06T10:42:13.683Z,998.81
2018-04-06T10:43:13.771Z,998.85
2018-04-06T10:44:13.866Z,998.80
2018-04-06T10:45:13.965Z,998.83
2018-04-06T10:46:14.059Z,998.84
2018-04-06T10:47:14.162Z,998.83
2018-04-06T10:48:14.253Z,998.76
2018-04-06T10:49:14.354Z,998.76
2018-04-06T10:50:14.447Z,998.74
2018-04-06T10:51:14.545Z,998.72
2018-04-06T10:52:14.637Z,998.67
2018-04-06T10:53:14.734Z,998.67
2018-04-06T10:54:14.828Z,998.56
2018-04-06T10:55:14.921Z,998.62
2018-04-06T10:56:15.019Z,998.62
2018-04-06T10:57:15.115Z,998.62
2018-04-06T10:58:15.212Z,998.57
2018-04-06T10:59:15.315Z,998.52
2018-04-06T11:00:15.424Z,998.57
2018-04-06T11:01:15.519Z,998.59
2018-04-06T11:02:15.612Z,998.58
2018-04-06T11:03:15.716Z,998.57
2018-04-06T11:04:15.805Z,998.59
2018-04-06T11:05:15.906Z,998.57
2018-04-06T11:06:15.997Z,998.56
2018-04-06T11:07:16.094Z,998.58
2018-04-06T11:08:16.190Z,998.58
2018-04-06T11:09:16.290Z,998.54
2018-04-06T11:10:16.382Z,998.58
2018-04-06T11:11:16.480Z,998.55
2018-04-06T11:12:16.574Z,998.54
2018-04-06T11:13:16.672Z,998.57
2018-04-06T11:14:16.763Z,998.52
2018-04-06T11:15:16.861Z,998.53
2018-04-06T11:16:16.962Z,998.48
2018-04-06T11:17:17.054Z,998.46
2018-04-06T11:18:17.150Z,998.45
2018-04-06T11:19:17.250Z,998.52
2018-04-06T11:20:17.357Z,998.45
2018-04-06T11:21:17.446Z,998.48
2018-04-06T11:22:17.540Z,998.51
2018-04-06T11:23:17.643Z,998.44
2018-04-06T11:24:17.740Z,998.42
2018-04-06T11:25:17.835Z,998.40
2018-04-06T11:26:17.930Z,998.43
2018-04-06T11:27:18.024Z,998.40
2018-04-06T11:28:18.123Z,998.36
2018-04-06T11:29:18.232Z,998.33
2018-04-06T11:30:18.316Z,998.28
2018-04-06T11:31:18.411Z,998.31
2018-04-06T11:32:18.511Z,998.23
2018-04-06T11:33:18.603Z,998.20
2018-04-06T11:34:18.708Z,998.23
2018-04-06T11:35:18.795Z,998.15
2018-04-06T11:36:18.892Z,998.19
2018-04-06T11:37:18.989Z,998.16
2018-04-06T11:38:19.081Z,998.19
2018-04-06T11:39:19.187Z,998.15
2018-04-06T11:40:19.286Z,998.10
2018-04-06T11:41:19.384Z,998.11
2018-04-06T11:42:19.476Z,998.09
2018-04-06T11:43:19.575Z,998.03
2018-04-06T11:44:19.674Z,998.09
2018-04-06T11:45:19.766Z,998.09
2018-04-06T11:46:19.869Z,998.08
2018-04-06T11:47:19.961Z,998.04
2018-04-06T11:48:20.060Z,998.02
2018-04-06T11:49:20.157Z,998.04
2018-04-06T11:50:20.256Z,998.00
2018-04-06T11:51:20.353Z,997.96
2018-04-06T11:52:20.445Z,997.96
2018-04-06T11:53:20.540Z,997.97
2018-04-06T11:54:20.633Z,997.88
2018-04-06T11:55:20.718Z,997.92
2018-04-06T11:56:20.801Z,997.92
2018-04-06T11:57:20.911Z,997.91
2018-04-06T11:58:21.054Z,997.92
2018-04-06T11:59:21.157Z,997.93
2018-04-06T12:00:21.245Z,997.93
2018-04-06T12:01:21.329Z,997.88
2018-04-06T12:02:21.415Z,997.85
2018-04-06T12:03:21.523Z,997.89
2018-04-06T12:04:21.609Z,997.86
2018-04-06T12:05:21.693Z,997.77
2018-04-06T12:06:21.806Z,997.79
2018-04-06T12:07:21.913Z,997.75
2018-04-06T12:08:21.992Z,997.81
2018-04-06T12:09:22.074Z,997.77
2018-04-06T12:10:22.156Z,997.72
2018-04-06T12:11:22.256Z,997.72
2018-04-06T12:12:22.336Z,997.69
2018-04-06T12:13:22.451Z,997.67
2018-04-06T12:14:22.571Z,997.65
2018-04-06T12:15:22.684Z,997.72
2018-04-06T12:16:22.777Z,997.56
2018-04-06T12:17:22.882Z,997.62
2018-04-06T12:18:22.982Z,997.67
2018-04-06T12:19:23.073Z,997.66
2018-04-06T12:20:23.156Z,997.59
2018-04-06T12:21:23.236Z,997.63
2018-04-06T12:22:23.328Z,997.64